createdAt,value
2019-06-26T00:00:40.324Z,92.43
2019-06-26T00:03:06.627Z,93.35
2019-06-26T00:05:32.871Z,93.50
2019-06-26T00:07:59.144Z,92.32
2019-06-26T00:10:25.369Z,92.27
2019-06-26T00:12:51.548Z,93.44
2019-06-26T00:15:17.761Z,92.94
2019-06-26T00:17:44.036Z,93.62
2019-06-26T00:20:11.648Z,93.00
2019-06-26T00:22:37.888Z,93.98
2019-06-26T00:25:05.948Z,93.49
2019-06-26T00:27:32.177Z,93.75
2019-06-26T00:29:58.422Z,93.62
2019-06-26T00:32:24.582Z,95.64
2019-06-26T00:34:50.789Z,95.29
2019-06-26T00:37:17.035Z,94.24
2019-06-26T00:39:43.264Z,94.87
2019-06-26T00:42:09.516Z,94.67
2019-06-26T00:44:35.735Z,94.86
2019-06-26T00:47:02.026Z,95.79
2019-06-26T00:49:28.241Z,95.54
2019-06-26T00:51:54.375Z,95.41
2019-06-26T00:54:20.510Z,95.12
2019-06-26T00:56:46.654Z,95.13
2019-06-26T00:59:12.895Z,95.24
2019-06-26T01:01:39.116Z,94.87
2019-06-26T01:04:07.181Z,94.80
2019-06-26T01:06:42.236Z,94.23
2019-06-26T01:09:08.383Z,94.10
2019-06-26T01:11:34.625Z,94.14
2019-06-26T01:14:00.854Z,94.88
2019-06-26T01:16:27.111Z,94.76
2019-06-26T01:18:53.359Z,94.24
2019-06-26T01:21:19.810Z,93.93
2019-06-26T01:23:46.084Z,94.47
2019-06-26T01:26:12.488Z,94.70
2019-06-26T01:28:38.703Z,94.04
2019-06-26T01:31:04.987Z,94.58
2019-06-26T01:33:31.172Z,94.09
2019-06-26T01:35:57.396Z,94.70
2019-06-26T01:38:23.551Z,94.16
2019-06-26T01:40:49.786Z,94.16
2019-06-26T01:43:15.905Z,94.12
2019-06-26T01:45:42.153Z,93.75
2019-06-26T01:48:08.327Z,94.21
2019-06-26T01:50:34.545Z,94.17
2019-06-26T01:53:00.673Z,93.47
2019-06-26T01:55:26.913Z,94.42
2019-06-26T01:57:53.055Z,95.00
2019-06-26T02:00:19.378Z,95.13
2019-06-26T02:02:45.632Z,93.51
2019-06-26T02:05:11.847Z,94.02
2019-06-26T02:07:38.083Z,94.53
2019-06-26T02:10:06.117Z,94.67
2019-06-26T02:12:32.346Z,95.28
2019-06-26T02:14:58.479Z,95.14
2019-06-26T02:17:24.708Z,94.87
2019-06-26T02:19:50.939Z,94.84
2019-06-26T02:22:17.182Z,95.03
2019-06-26T02:24:43.434Z,95.10
2019-06-26T02:27:09.656Z,95.66
2019-06-26T02:29:35.875Z,95.67
2019-06-26T02:32:02.107Z,95.70
2019-06-26T02:34:28.336Z,95.58
2019-06-26T02:36:54.584Z,95.35
2019-06-26T02:39:20.694Z,95.15
2019-06-26T02:41:46.919Z,96.10
2019-06-26T02:44:13.037Z,95.47
2019-06-26T02:46:39.354Z,95.76
2019-06-26T02:49:05.544Z,95.54
2019-06-26T02:51:31.750Z,96.23
2019-06-26T02:53:57.878Z,96.14
2019-06-26T02:56:24.016Z,95.82
2019-06-26T02:58:50.264Z,95.85
2019-06-26T03:01:16.426Z,95.97
2019-06-26T03:03:42.513Z,95.32
2019-06-26T03:06:08.651Z,94.82
2019-06-26T03:08:34.884Z,94.50
2019-06-26T03:11:01.129Z,94.92
2019-06-26T03:13:27.350Z,95.05
2019-06-26T03:15:53.475Z,95.86
2019-06-26T03:18:19.612Z,95.74
2019-06-26T03:20:52.048Z,96.00
2019-06-26T03:23:18.194Z,95.90
2019-06-26T03:25:44.414Z,96.50
2019-06-26T03:28:10.546Z,96.01
2019-06-26T03:30:36.782Z,95.36
2019-06-26T03:33:03.012Z,95.42
2019-06-26T03:35:29.331Z,96.12
2019-06-26T03:37:55.559Z,95.64
2019-06-26T03:40:21.692Z,95.10
2019-06-26T03:42:47.896Z,95.99
2019-06-26T03:45:25.091Z,95.73
2019-06-26T03:47:42.385Z,96.03
2019-06-26T03:50:08.814Z,95.42
2019-06-26T03:52:34.962Z,95.26
2019-06-26T03:55:01.101Z,95.71
2019-06-26T03:57:27.332Z,94.30
2019-06-26T03:59:53.465Z,94.45
2019-06-26T04:02:19.684Z,94.35
2019-06-26T04:04:45.906Z,93.85
2019-06-26T04:07:12.124Z,95.15
2019-06-26T04:09:38.389Z,94.92
2019-06-26T04:12:04.610Z,94.13
2019-06-26T04:14:30.737Z,94.18
2019-06-26T04:16:56.871Z,93.57
2019-06-26T04:19:23.093Z,93.94
2019-06-26T04:21:49.226Z,93.50
2019-06-26T04:24:15.368Z,92.93
2019-06-26T04:26:41.489Z,92.16
2019-06-26T04:29:07.720Z,92.42
2019-06-26T04:31:34.047Z,93.25
2019-06-26T04:34:00.315Z,92.42
2019-06-26T04:36:26.532Z,92.38
2019-06-26T04:38:52.777Z,92.18
2019-06-26T04:41:18.920Z,91.62
2019-06-26T04:43:45.143Z,91.88
2019-06-26T04:46:11.388Z,91.68
2019-06-26T04:48:37.505Z,91.11
2019-06-26T04:51:04.041Z,91.19
2019-06-26T04:53:30.265Z,90.56
2019-06-26T04:55:56.552Z,89.89
2019-06-26T04:58:22.742Z,89.81
2019-06-26T05:00:48.871Z,90.07
2019-06-26T05:03:15.115Z,90.22
2019-06-26T05:05:44.365Z,89.83
2019-06-26T05:08:09.458Z,89.71
2019-06-26T05:10:35.719Z,88.93
2019-06-26T05:13:01.964Z,88.31
2019-06-26T05:15:28.192Z,87.71
2019-06-26T05:17:54.314Z,87.41
2019-06-26T05:20:20.450Z,87.38
2019-06-26T05:22:46.688Z,86.80
2019-06-26T05:25:12.932Z,87.31
2019-06-26T05:27:39.465Z,87.92
2019-06-26T05:30:06.412Z,88.51
2019-06-26T05:32:32.645Z,87.96
2019-06-26T05:34:58.869Z,87.36
2019-06-26T05:37:25.180Z,86.07
2019-06-26T05:39:54.621Z,86.07
2019-06-26T05:42:19.585Z,85.17
2019-06-26T05:44:45.811Z,83.76
2019-06-26T05:47:12.067Z,78.74
2019-06-26T05:49:38.313Z,78.74
2019-06-26T05:52:04.601Z,76.75
2019-06-26T05:54:30.756Z,76.79
2019-06-26T05:56:56.918Z,77.00
2019-06-26T05:59:23.174Z,77.63
2019-06-26T06:01:49.991Z,75.93
2019-06-26T06:04:16.246Z,71.50
2019-06-26T06:06:42.506Z,70.58
2019-06-26T06:09:08.726Z,67.02
2019-06-26T06:11:34.851Z,63.31
2019-06-26T06:14:01.007Z,65.66
2019-06-26T06:16:27.224Z,64.37
2019-06-26T06:18:53.504Z,62.18
2019-06-26T06:21:19.718Z,61.03
2019-06-26T06:23:45.969Z,60.21
2019-06-26T06:26:12.255Z,57.66
2019-06-26T06:28:38.552Z,60.18
2019-06-26T06:31:04.796Z,59.20
2019-06-26T06:33:31.130Z,55.69
2019-06-26T06:35:57.359Z,58.87
2019-06-26T06:38:23.610Z,57.70
2019-06-26T06:40:49.743Z,55.71
2019-06-26T06:43:15.896Z,55.49
2019-06-26T06:45:42.245Z,53.25
2019-06-26T06:48:08.466Z,52.45
2019-06-26T06:50:34.652Z,52.76
2019-06-26T06:53:00.868Z,54.48
2019-06-26T06:55:27.086Z,52.43
2019-06-26T06:57:53.334Z,49.83
2019-06-26T07:00:20.675Z,51.42
2019-06-26T07:02:46.984Z,52.82
2019-06-26T07:05:13.526Z,53.36
2019-06-26T07:07:39.749Z,51.71
2019-06-26T07:10:06.281Z,52.12
2019-06-26T07:12:32.525Z,53.00
2019-06-26T07:14:58.782Z,54.46
2019-06-26T07:17:25.015Z,54.59
2019-06-26T07:19:51.179Z,55.03
2019-06-26T07:22:17.407Z,55.56
2019-06-26T07:24:43.667Z,55.22
2019-06-26T07:27:09.882Z,56.07
2019-06-26T07:29:36.014Z,53.22
2019-06-26T07:32:02.281Z,50.93
2019-06-26T07:34:28.497Z,50.30
2019-06-26T07:36:54.741Z,49.77
2019-06-26T07:39:21.322Z,50.69
2019-06-26T07:41:47.504Z,49.04
2019-06-26T07:44:13.743Z,47.30
2019-06-26T07:46:39.922Z,49.48
2019-06-26T07:49:06.042Z,49.57
2019-06-26T07:51:32.303Z,47.93
2019-06-26T07:53:58.583Z,48.74
2019-06-26T07:56:24.868Z,48.19
2019-06-26T07:58:51.052Z,46.94
2019-06-26T08:01:17.289Z,47.02
2019-06-26T08:03:43.532Z,45.68
2019-06-26T08:06:09.670Z,46.33
2019-06-26T08:08:35.928Z,45.90
2019-06-26T08:11:06.185Z,44.79
2019-06-26T08:13:30.221Z,45.36
2019-06-26T08:15:56.463Z,46.80
2019-06-26T08:18:22.694Z,46.11
2019-06-26T08:21:07.212Z,47.54
2019-06-26T08:23:17.197Z,49.14
2019-06-26T08:25:43.420Z,49.40
2019-06-26T08:28:09.680Z,49.68
2019-06-26T08:30:35.909Z,49.59
2019-06-26T08:33:02.069Z,49.95
2019-06-26T08:35:28.325Z,50.30
2019-06-26T08:38:09.030Z,51.08
2019-06-26T08:40:22.715Z,49.87
2019-06-26T08:42:48.997Z,49.29
2019-06-26T08:45:15.387Z,49.01
2019-06-26T08:47:41.524Z,49.34
2019-06-26T08:50:08.476Z,50.31
2019-06-26T08:52:35.011Z,48.34
2019-06-26T08:55:01.341Z,48.68
2019-06-26T08:57:27.531Z,46.55
2019-06-26T08:59:53.781Z,47.94
2019-06-26T09:02:20.042Z,47.28
2019-06-26T09:04:46.283Z,47.66
2019-06-26T09:07:12.427Z,46.78
2019-06-26T09:09:38.767Z,47.39
2019-06-26T09:12:05.048Z,46.63
2019-06-26T09:14:31.297Z,47.27
2019-06-26T09:16:57.569Z,45.21
2019-06-26T09:19:23.856Z,45.34
2019-06-26T09:21:50.037Z,45.12
2019-06-26T09:24:16.353Z,46.16
2019-06-26T09:26:42.587Z,46.46
2019-06-26T09:29:08.842Z,47.72
2019-06-26T09:31:34.985Z,48.80
2019-06-26T09:34:01.105Z,48.72
2019-06-26T09:36:27.344Z,48.72
2019-06-26T09:38:57.685Z,49.37
2019-06-26T09:41:21.775Z,50.19
2019-06-26T09:43:47.918Z,50.99
2019-06-26T09:46:15.411Z,51.19
2019-06-26T09:48:52.253Z,52.23
2019-06-26T09:51:09.654Z,51.76
2019-06-26T09:53:46.439Z,51.85
2019-06-26T09:56:03.941Z,52.42
2019-06-26T09:58:30.191Z,52.40
2019-06-26T10:00:56.326Z,52.34
2019-06-26T10:03:22.561Z,51.64
2019-06-26T10:05:48.804Z,53.74
2019-06-26T10:08:15.033Z,51.36
2019-06-26T10:10:41.350Z,50.68
2019-06-26T10:13:07.946Z,52.26
2019-06-26T10:15:34.253Z,51.40
2019-06-26T10:18:00.525Z,51.54
2019-06-26T10:20:26.713Z,50.35
2019-06-26T10:22:53.004Z,51.14
2019-06-26T10:25:21.067Z,49.60
2019-06-26T10:27:50.219Z,50.96
2019-06-26T10:30:16.865Z,50.75
2019-06-26T10:32:43.750Z,49.66
2019-06-26T10:35:10.143Z,50.46
2019-06-26T10:37:36.398Z,51.60
2019-06-26T10:40:03.248Z,50.51
2019-06-26T10:42:29.501Z,51.07
2019-06-26T10:44:55.630Z,51.10
2019-06-26T10:47:21.767Z,51.16
2019-06-26T10:49:47.907Z,51.50
2019-06-26T10:52:14.267Z,50.33
2019-06-26T10:54:44.202Z,51.58
2019-06-26T10:57:08.635Z,51.17
2019-06-26T10:59:34.801Z,50.32
2019-06-26T11:02:01.031Z,51.47
2019-06-26T11:04:27.259Z,52.80
2019-06-26T11:06:53.399Z,51.94
2019-06-26T11:09:19.631Z,52.57
2019-06-26T11:11:45.791Z,53.65
2019-06-26T11:14:12.025Z,53.49
2019-06-26T11:16:38.191Z,53.31
2019-06-26T11:19:04.428Z,53.25
2019-06-26T11:21:30.667Z,53.47
2019-06-26T11:23:56.817Z,54.03
2019-06-26T11:26:22.941Z,54.28
2019-06-26T11:28:49.095Z,53.55
2019-06-26T11:31:15.320Z,53.86
2019-06-26T11:33:41.563Z,52.71
2019-06-26T11:36:07.694Z,55.29
2019-06-26T11:38:33.829Z,55.31
2019-06-26T11:41:01.912Z,55.40
2019-06-26T11:43:28.105Z,55.31
2019-06-26T11:45:54.333Z,55.95
2019-06-26T11:48:20.605Z,55.79
2019-06-26T11:50:46.740Z,55.27
2019-06-26T11:53:13.035Z,55.26
2019-06-26T11:55:39.374Z,56.35
2019-06-26T11:58:05.499Z,57.12
2019-06-26T12:00:31.746Z,56.74
2019-06-26T12:02:57.974Z,57.73
2019-06-26T12:05:24.606Z,57.98
2019-06-26T12:07:50.833Z,58.07
2019-06-26T12:10:18.461Z,57.80
2019-06-26T12:12:44.830Z,58.33
2019-06-26T12:15:12.672Z,58.33
2019-06-26T12:17:38.893Z,59.05
2019-06-26T12:20:17.765Z,58.80
2019-06-26T12:22:33.565Z,59.48
2019-06-26T12:24:59.835Z,59.60
2019-06-26T12:27:26.057Z,60.51
2019-06-26T12:29:52.287Z,60.06
2019-06-26T12:32:18.578Z,59.47
2019-06-26T12:34:45.422Z,59.20
2019-06-26T12:37:11.641Z,58.99
2019-06-26T12:39:37.867Z,58.81
2019-06-26T12:42:04.130Z,58.91
2019-06-26T12:44:30.264Z,59.42
2019-06-26T12:46:56.460Z,59.75
2019-06-26T12:49:22.688Z,60.21
2019-06-26T12:51:48.920Z,59.84
2019-06-26T12:54:15.176Z,60.36
2019-06-26T12:56:41.322Z,60.60
2019-06-26T12:59:07.556Z,61.09
2019-06-26T13:01:33.786Z,61.94
2019-06-26T13:04:00.124Z,62.29
2019-06-26T13:06:26.341Z,62.63
2019-06-26T13:08:52.471Z,62.99
2019-06-26T13:11:18.717Z,63.11
2019-06-26T13:13:58.367Z,63.82
2019-06-26T13:16:13.051Z,64.10
2019-06-26T13:18:39.293Z,63.94
2019-06-26T13:21:05.752Z,64.31
2019-06-26T13:23:32.057Z,63.78
2019-06-26T13:25:58.319Z,64.24
2019-06-26T13:28:24.577Z,64.06
2019-06-26T13:30:53.233Z,64.17
2019-06-26T13:33:18.957Z,64.62
2019-06-26T13:35:45.174Z,65.28
2019-06-26T13:38:11.322Z,64.84
2019-06-26T13:40:40.801Z,66.01
2019-06-26T13:43:05.708Z,64.93
2019-06-26T13:45:32.114Z,64.64
2019-06-26T13:47:58.358Z,65.18
2019-06-26T13:50:24.490Z,65.44
2019-06-26T13:52:50.747Z,65.58
2019-06-26T13:55:16.976Z,65.01
2019-06-26T13:57:43.403Z,65.09
2019-06-26T14:00:10.231Z,64.77
2019-06-26T14:02:36.461Z,65.71
2019-06-26T14:05:04.115Z,64.88
2019-06-26T14:07:30.350Z,65.07
2019-06-26T14:09:58.055Z,64.03
2019-06-26T14:12:24.200Z,63.71
2019-06-26T14:14:57.319Z,64.44
2019-06-26T14:17:18.652Z,63.86
2019-06-26T14:19:44.856Z,65.00
2019-06-26T14:22:13.104Z,63.35
2019-06-26T14:24:39.145Z,63.82
2019-06-26T14:27:05.385Z,62.94
2019-06-26T14:29:31.502Z,61.98
2019-06-26T14:31:57.905Z,61.28
2019-06-26T14:34:27.802Z,61.68
2019-06-26T14:36:52.183Z,61.11
2019-06-26T14:39:18.334Z,60.44
2019-06-26T14:41:44.565Z,60.87
2019-06-26T14:44:10.806Z,60.29
2019-06-26T14:46:37.059Z,59.79
2019-06-26T14:49:03.341Z,60.17
2019-06-26T14:51:42.336Z,60.03
2019-06-26T14:53:57.711Z,59.24
2019-06-26T14:56:23.975Z,59.62
2019-06-26T14:58:50.177Z,60.09
2019-06-26T15:01:16.421Z,60.47
2019-06-26T15:03:42.666Z,60.93
2019-06-26T15:06:16.222Z,60.64
2019-06-26T15:08:37.042Z,59.97
2019-06-26T15:11:03.259Z,60.41
2019-06-26T15:13:29.520Z,60.94
2019-06-26T15:15:55.745Z,61.56
2019-06-26T15:18:21.989Z,61.31
2019-06-26T15:20:48.243Z,61.31
2019-06-26T15:23:14.469Z,60.77
2019-06-26T15:25:40.730Z,60.96
2019-06-26T15:28:10.195Z,61.01
2019-06-26T15:30:35.108Z,61.41
2019-06-26T15:33:01.341Z,61.45
2019-06-26T15:35:27.582Z,61.45
2019-06-26T15:37:53.807Z,61.19
2019-06-26T15:40:20.065Z,61.98
2019-06-26T15:42:48.978Z,61.15
2019-06-26T15:45:14.377Z,61.25
2019-06-26T15:47:40.626Z,62.48
2019-06-26T15:50:10.512Z,62.01
2019-06-26T15:52:35.520Z,62.61
2019-06-26T15:55:02.153Z,62.48
2019-06-26T15:57:28.404Z,62.59
2019-06-26T15:59:54.589Z,62.94
2019-06-26T16:02:20.824Z,62.73
2019-06-26T16:04:48.352Z,62.92
2019-06-26T16:07:14.600Z,62.75
2019-06-26T16:09:40.833Z,62.88
2019-06-26T16:12:07.125Z,63.65
2019-06-26T16:14:33.363Z,63.75
2019-06-26T16:17:04.161Z,64.30
2019-06-26T16:19:30.418Z,64.33
2019-06-26T16:21:56.554Z,64.34
2019-06-26T16:24:22.899Z,64.71
2019-06-26T16:26:49.158Z,64.11
2019-06-26T16:29:15.385Z,64.69
2019-06-26T16:31:41.643Z,65.23
2019-06-26T16:34:08.007Z,65.12
2019-06-26T16:36:37.095Z,65.94
2019-06-26T16:39:05.875Z,65.77
2019-06-26T16:41:32.130Z,66.33
2019-06-26T16:43:58.454Z,66.47
2019-06-26T16:46:24.742Z,66.89
2019-06-26T16:48:50.987Z,67.08
2019-06-26T16:51:17.216Z,67.17
2019-06-26T16:53:43.478Z,67.46
2019-06-26T16:56:09.750Z,67.37
2019-06-26T16:58:35.971Z,67.80
2019-06-26T17:01:02.297Z,67.88
2019-06-26T17:03:28.572Z,68.43
2019-06-26T17:05:54.800Z,68.25
2019-06-26T17:08:21.036Z,68.79
2019-06-26T17:10:47.161Z,68.76
2019-06-26T17:13:13.332Z,69.40
2019-06-26T17:15:39.558Z,69.70
2019-06-26T17:18:05.815Z,69.50
2019-06-26T17:20:31.936Z,69.80
2019-06-26T17:23:05.759Z,69.73
2019-06-26T17:25:26.105Z,69.80
2019-06-26T17:27:52.349Z,69.99
2019-06-26T17:30:18.685Z,70.63
2019-06-26T17:32:44.911Z,70.82
2019-06-26T17:35:11.454Z,70.79
2019-06-26T17:37:37.684Z,70.74
2019-06-26T17:40:04.642Z,70.65
2019-06-26T17:42:30.909Z,71.27
2019-06-26T17:44:57.175Z,71.15
2019-06-26T17:47:23.427Z,71.37
2019-06-26T17:49:49.568Z,72.20
2019-06-26T17:52:15.721Z,71.44
2019-06-26T17:54:41.956Z,71.48
2019-06-26T17:57:08.306Z,71.76
2019-06-26T17:59:34.569Z,72.09
2019-06-26T18:02:00.824Z,72.45
2019-06-26T18:04:27.083Z,72.32
2019-06-26T18:06:53.346Z,72.36
2019-06-26T18:09:19.597Z,72.44
2019-06-26T18:11:45.754Z,72.89
2019-06-26T18:14:11.902Z,72.99
2019-06-26T18:16:38.148Z,73.32
2019-06-26T18:19:04.283Z,73.55
2019-06-26T18:21:30.816Z,73.45
2019-06-26T18:23:57.048Z,73.45
2019-06-26T18:26:23.244Z,73.41
2019-06-26T18:28:49.577Z,73.94
2019-06-26T18:31:18.623Z,73.94
2019-06-26T18:33:44.852Z,73.80
2019-06-26T18:36:11.099Z,74.27
2019-06-26T18:38:37.274Z,74.28
2019-06-26T18:41:03.685Z,74.20
2019-06-26T18:43:29.962Z,74.20
2019-06-26T18:45:56.354Z,74.38
2019-06-26T18:48:24.926Z,74.47
2019-06-26T18:50:50.766Z,74.80
2019-06-26T18:53:17.121Z,75.80
2019-06-26T18:55:43.276Z,75.51
2019-06-26T18:58:09.657Z,75.90
2019-06-26T19:00:35.945Z,76.01
2019-06-26T19:03:03.956Z,76.03
2019-06-26T19:05:32.043Z,76.03
2019-06-26T19:07:58.396Z,76.03
2019-06-26T19:10:24.659Z,76.02
2019-06-26T19:12:50.794Z,76.02
2019-06-26T19:15:17.091Z,76.01
2019-06-26T19:17:43.332Z,76.62
2019-06-26T19:20:11.097Z,76.67
2019-06-26T19:22:37.338Z,76.68
2019-06-26T19:25:05.932Z,76.98
2019-06-26T19:27:32.616Z,76.64
2019-06-26T19:30:00.596Z,77.50
2019-06-26T19:32:26.847Z,77.50
2019-06-26T19:34:53.092Z,77.58
2019-06-26T19:37:19.350Z,77.83
2019-06-26T19:39:45.601Z,77.70
2019-06-26T19:42:11.873Z,78.15
2019-06-26T19:44:38.109Z,78.15
2019-06-26T19:47:04.399Z,78.71
2019-06-26T19:49:30.645Z,78.71
2019-06-26T19:51:57.169Z,78.96
2019-06-26T19:54:27.748Z,79.01
2019-06-26T19:56:52.145Z,78.82
2019-06-26T19:59:18.407Z,78.87
2019-06-26T20:01:45.636Z,78.83
2019-06-26T20:04:12.139Z,79.17
2019-06-26T20:06:38.406Z,79.44
2019-06-26T20:09:05.527Z,79.19
2019-06-26T20:11:31.785Z,79.50
2019-06-26T20:13:58.349Z,79.41
2019-06-26T20:16:24.675Z,79.54
2019-06-26T20:18:50.803Z,79.72
2019-06-26T20:21:17.102Z,80.50
2019-06-26T20:23:43.259Z,80.52
2019-06-26T20:26:14.675Z,80.78
2019-06-26T20:28:41.014Z,80.90
2019-06-26T20:31:07.314Z,81.16
2019-06-26T20:33:33.556Z,81.01
2019-06-26T20:35:59.825Z,81.35
2019-06-26T20:38:26.091Z,81.53
2019-06-26T20:40:52.359Z,82.13
2019-06-26T20:43:18.712Z,83.60
2019-06-26T20:45:44.972Z,83.30
2019-06-26T20:48:20.499Z,83.58
2019-06-26T20:50:46.829Z,83.80
2019-06-26T20:53:13.059Z,84.37
2019-06-26T20:55:39.319Z,85.08
2019-06-26T20:58:05.634Z,84.69
2019-06-26T21:00:32.200Z,84.45
2019-06-26T21:02:58.489Z,85.09
2019-06-26T21:05:28.434Z,84.96
2019-06-26T21:07:53.090Z,85.03
2019-06-26T21:10:19.239Z,85.71
2019-06-26T21:12:45.513Z,85.65
2019-06-26T21:15:11.875Z,85.98
2019-06-26T21:17:38.073Z,86.19
2019-06-26T21:20:05.740Z,86.12
2019-06-26T21:22:31.991Z,85.63
2019-06-26T21:24:58.322Z,85.89
2019-06-26T21:27:24.615Z,85.43
2019-06-26T21:29:50.866Z,82.22
2019-06-26T21:32:17.113Z,81.49
2019-06-26T21:34:44.243Z,79.47
2019-06-26T21:37:10.526Z,78.86
2019-06-26T21:39:36.802Z,77.07
2019-06-26T21:42:03.054Z,77.09
2019-06-26T21:44:29.334Z,75.93
2019-06-26T21:46:55.555Z,75.45
2019-06-26T21:49:21.821Z,76.41
2019-06-26T21:51:48.115Z,73.69
2019-06-26T21:54:14.370Z,75.46
2019-06-26T21:56:40.659Z,75.51
2019-06-26T21:59:06.970Z,75.41
2019-06-26T22:01:33.303Z,74.16
2019-06-26T22:03:59.814Z,73.00
2019-06-26T22:06:27.318Z,73.29
2019-06-26T22:08:53.591Z,73.33
2019-06-26T22:11:19.881Z,74.12
2019-06-26T22:13:46.040Z,73.81
2019-06-26T22:16:12.335Z,74.45
2019-06-26T22:18:38.473Z,74.29
2019-06-26T22:21:04.961Z,74.13
2019-06-26T22:23:31.200Z,74.38
2019-06-26T22:25:58.353Z,74.87
2019-06-26T22:28:24.636Z,75.20
2019-06-26T22:30:52.360Z,75.20
2019-06-26T22:33:19.503Z,74.84
2019-06-26T22:35:45.777Z,75.36
2019-06-26T22:38:12.008Z,75.95
2019-06-26T22:40:39.235Z,76.04
2019-06-26T22:43:05.511Z,76.45
2019-06-26T22:45:31.867Z,76.37
2019-06-26T22:47:58.125Z,76.11
2019-06-26T22:50:24.270Z,76.03
2019-06-26T22:52:50.550Z,75.74
2019-06-26T22:55:16.818Z,75.11
2019-06-26T22:57:42.974Z,74.08
2019-06-26T23:00:11.598Z,74.87
2019-06-26T23:02:37.974Z,74.74
2019-06-26T23:05:05.174Z,74.67
2019-06-26T23:07:31.437Z,75.07
2019-06-26T23:09:57.691Z,74.86
2019-06-26T23:12:24.041Z,75.12
2019-06-26T23:14:50.309Z,74.19
2019-06-26T23:17:16.577Z,74.76
2019-06-26T23:19:42.835Z,75.40
2019-06-26T23:22:09.085Z,75.83
2019-06-26T23:24:35.326Z,76.92
2019-06-26T23:27:01.603Z,76.24
2019-06-26T23:29:27.909Z,76.23
2019-06-26T23:31:55.693Z,76.08
2019-06-26T23:34:22.645Z,76.14
2019-06-26T23:36:49.928Z,75.76
2019-06-26T23:39:16.168Z,75.66
2019-06-26T23:41:42.420Z,75.54
2019-06-26T23:44:08.672Z,75.92
2019-06-26T23:46:34.916Z,74.84
2019-06-26T23:49:01.170Z,74.52
2019-06-26T23:51:27.424Z,74.22
2019-06-26T23:53:53.671Z,74.23
2019-06-26T23:56:19.917Z,74.29
2019-06-26T23:58:46.152Z,74.52
